createdAt,value
2022-07-30T00:02:06.082Z,19.80
2022-07-30T00:04:39.448Z,18.60
2022-07-30T00:07:06.449Z,18.70
2022-07-30T00:09:34.279Z,18.60
2022-07-30T00:12:04.476Z,20.20
2022-07-30T00:14:32.274Z,18.40
2022-07-30T00:16:59.565Z,18.40
2022-07-30T00:19:27.764Z,19.20
2022-07-30T00:22:20.747Z,18.40
2022-07-30T00:24:47.694Z,18.30
2022-07-30T00:27:14.576Z,18.30
2022-07-30T00:29:44.952Z,18.30
2022-07-30T00:32:12.073Z,18.20
2022-07-30T00:34:39.227Z,20.20
2022-07-30T00:37:07.004Z,18.10
2022-07-30T00:39:34.784Z,19.70
2022-07-30T00:42:04.635Z,18.10
2022-07-30T00:44:31.990Z,18.00
2022-07-30T00:47:02.031Z,18.00
2022-07-30T00:49:29.874Z,18.00
2022-07-30T00:51:56.936Z,18.70
2022-07-30T00:54:25.478Z,17.90
2022-07-30T00:56:52.609Z,17.80
2022-07-30T00:59:19.560Z,17.80
2022-07-30T01:01:47.345Z,18.10
2022-07-30T01:04:14.342Z,17.70
2022-07-30T01:06:41.325Z,17.70
2022-07-30T01:09:08.684Z,17.70
2022-07-30T01:11:42.270Z,17.70
2022-07-30T01:14:10.834Z,18.40
2022-07-30T01:16:41.996Z,19.70
2022-07-30T01:19:58.270Z,17.60
2022-07-30T01:22:31.243Z,17.70
2022-07-30T01:25:25.729Z,17.60
2022-07-30T01:28:00.847Z,17.60
2022-07-30T01:30:32.610Z,18.90
2022-07-30T01:33:04.673Z,19.50
2022-07-30T01:35:35.400Z,17.50
2022-07-30T01:38:05.327Z,17.90
2022-07-30T01:40:34.850Z,19.20
2022-07-30T01:43:03.678Z,17.40
2022-07-30T01:45:33.472Z,18.20
2022-07-30T01:48:13.621Z,17.40
2022-07-30T01:50:55.010Z,17.50
2022-07-30T01:53:29.980Z,18.40
2022-07-30T01:56:01.886Z,17.30
2022-07-30T01:58:35.556Z,17.30
2022-07-30T02:01:20.318Z,17.20
2022-07-30T02:03:48.005Z,18.10
2022-07-30T02:06:33.094Z,18.40
2022-07-30T02:09:10.625Z,18.60
2022-07-30T02:12:03.794Z,17.10
2022-07-30T02:14:43.786Z,17.10
2022-07-30T02:17:19.433Z,17.00
2022-07-30T02:19:57.448Z,17.00
2022-07-30T02:22:31.185Z,17.00
2022-07-30T02:25:02.891Z,16.90
2022-07-30T02:27:35.271Z,16.80
2022-07-30T02:30:07.881Z,16.80
2022-07-30T02:32:40.847Z,16.80
2022-07-30T02:35:22.636Z,16.80
2022-07-30T02:37:56.744Z,16.70
2022-07-30T02:40:25.394Z,16.60
2022-07-30T02:42:54.682Z,18.70
2022-07-30T02:45:26.348Z,16.50
2022-07-30T02:48:06.626Z,16.80
2022-07-30T02:50:35.751Z,16.50
2022-07-30T02:53:06.786Z,16.50
2022-07-30T02:55:41.062Z,17.60
2022-07-30T02:58:11.470Z,16.40
2022-07-30T03:00:40.867Z,16.50
2022-07-30T03:03:11.738Z,17.90
2022-07-30T03:05:41.141Z,16.30
2022-07-30T03:08:09.784Z,16.20
2022-07-30T03:10:39.710Z,16.30
2022-07-30T03:13:09.675Z,16.20
2022-07-30T03:15:42.061Z,16.20
2022-07-30T03:18:14.958Z,16.20
2022-07-30T03:20:52.735Z,17.60
2022-07-30T03:23:20.719Z,16.20
2022-07-30T03:25:59.443Z,17.00
2022-07-30T03:28:32.047Z,16.10
2022-07-30T03:31:01.257Z,16.00
2022-07-30T03:33:38.272Z,18.10
2022-07-30T03:36:09.906Z,16.00
2022-07-30T03:38:42.938Z,15.90
2022-07-30T03:41:14.776Z,18.00
2022-07-30T03:43:46.434Z,17.10
2022-07-30T03:46:17.115Z,15.80
2022-07-30T03:48:47.806Z,18.00
2022-07-30T03:51:20.957Z,18.30
2022-07-30T03:53:49.025Z,15.70
2022-07-30T03:56:45.717Z,17.10
2022-07-30T03:59:22.902Z,16.90
2022-07-30T04:01:49.910Z,15.60
2022-07-30T04:04:41.638Z,16.20
2022-07-30T04:07:09.847Z,15.60
2022-07-30T04:09:36.879Z,16.20
2022-07-30T04:12:23.535Z,15.50
2022-07-30T04:14:50.490Z,17.00
2022-07-30T04:17:33.389Z,15.50
2022-07-30T04:20:18.162Z,15.80
2022-07-30T04:22:47.138Z,15.50
2022-07-30T04:25:24.280Z,15.60
2022-07-30T04:28:02.790Z,16.90
2022-07-30T04:30:34.790Z,15.60
2022-07-30T04:33:05.463Z,15.60
2022-07-30T04:35:51.079Z,17.90
2022-07-30T04:38:32.987Z,15.60
2022-07-30T04:41:00.238Z,15.60
2022-07-30T04:43:59.987Z,15.60
2022-07-30T04:46:28.627Z,16.90
2022-07-30T04:48:55.750Z,17.50
2022-07-30T04:51:37.939Z,15.70
2022-07-30T04:54:16.466Z,14.70
2022-07-30T04:56:50.294Z,17.70
2022-07-30T04:59:29.023Z,15.80
2022-07-30T05:02:01.939Z,15.80
2022-07-30T05:04:35.695Z,16.40
2022-07-30T05:07:05.172Z,15.80
2022-07-30T05:09:32.767Z,15.90
2022-07-30T05:12:01.789Z,18.20
2022-07-30T05:14:31.104Z,18.00
2022-07-30T05:16:58.831Z,16.00
2022-07-30T05:19:26.360Z,16.00
2022-07-30T05:21:53.399Z,17.10
2022-07-30T05:24:20.434Z,17.60
2022-07-30T05:26:54.107Z,16.10
2022-07-30T05:29:24.141Z,16.20
2022-07-30T05:31:56.595Z,16.60
2022-07-30T05:34:30.290Z,17.00
2022-07-30T05:37:00.059Z,16.40
2022-07-30T05:39:27.060Z,16.50
2022-07-30T05:42:17.214Z,16.60
2022-07-30T05:44:48.396Z,16.70
2022-07-30T05:47:15.390Z,16.70
2022-07-30T05:49:42.438Z,17.80
2022-07-30T05:52:14.699Z,16.90
2022-07-30T05:54:42.647Z,18.50
2022-07-30T05:57:12.286Z,17.10
2022-07-30T05:59:41.712Z,17.70
2022-07-30T06:02:18.650Z,17.30
2022-07-30T06:05:14.787Z,18.30
2022-07-30T06:07:43.237Z,17.60
2022-07-30T06:10:10.302Z,17.80
2022-07-30T06:12:40.324Z,17.80
2022-07-30T06:15:09.515Z,18.70
2022-07-30T06:17:57.110Z,18.00
2022-07-30T06:20:41.881Z,18.20
2022-07-30T06:23:12.259Z,18.30
2022-07-30T06:25:58.397Z,18.50
2022-07-30T06:28:37.607Z,18.50
2022-07-30T06:31:13.324Z,18.70
2022-07-30T06:33:43.135Z,18.70
2022-07-30T06:36:14.164Z,18.80
2022-07-30T06:39:00.045Z,18.80
2022-07-30T06:41:47.268Z,19.00
2022-07-30T06:44:17.797Z,18.10
2022-07-30T06:47:12.246Z,19.30
2022-07-30T06:49:43.504Z,20.50
2022-07-30T06:52:11.342Z,19.70
2022-07-30T06:54:46.601Z,20.30
2022-07-30T06:57:20.065Z,20.00
2022-07-30T06:59:56.964Z,20.70
2022-07-30T07:02:39.977Z,20.30
2022-07-30T07:05:12.510Z,21.60
2022-07-30T07:07:57.843Z,20.40
2022-07-30T07:10:29.470Z,20.90
2022-07-30T07:13:08.787Z,21.20
2022-07-30T07:15:39.188Z,22.80
2022-07-30T07:18:10.147Z,21.60
2022-07-30T07:20:40.735Z,21.90
2022-07-30T07:23:11.993Z,23.20
2022-07-30T07:25:41.591Z,22.30
2022-07-30T07:28:12.395Z,22.40
2022-07-30T07:30:44.437Z,24.80
2022-07-30T07:33:13.387Z,22.70
2022-07-30T07:35:49.438Z,22.80
2022-07-30T07:38:27.713Z,23.60
2022-07-30T07:40:57.930Z,23.70
2022-07-30T07:43:25.275Z,23.10
2022-07-30T07:45:54.961Z,23.10
2022-07-30T07:48:25.688Z,23.20
2022-07-30T07:51:00.624Z,23.20
2022-07-30T07:53:36.487Z,24.00
2022-07-30T07:56:04.343Z,25.00
2022-07-30T07:58:31.626Z,23.30
2022-07-30T08:01:02.077Z,23.40
2022-07-30T08:03:49.218Z,24.70
2022-07-30T08:06:45.586Z,24.70
2022-07-30T08:09:40.599Z,23.30
2022-07-30T08:12:27.517Z,23.30
2022-07-30T08:15:16.235Z,23.30
2022-07-30T08:18:13.952Z,23.40
2022-07-30T08:20:59.471Z,24.20
2022-07-30T08:23:34.506Z,23.70
2022-07-30T08:26:02.093Z,24.40
2022-07-30T08:28:35.682Z,24.00
2022-07-30T08:31:05.640Z,24.20
2022-07-30T08:33:32.659Z,24.40
2022-07-30T08:36:04.419Z,25.30
2022-07-30T08:38:38.709Z,24.50
2022-07-30T08:41:08.557Z,25.00
2022-07-30T08:43:39.410Z,24.80
2022-07-30T08:46:12.764Z,24.90
2022-07-30T08:48:52.823Z,25.00
2022-07-30T08:51:22.396Z,25.20
2022-07-30T08:53:50.445Z,25.30
2022-07-30T08:56:18.044Z,25.60
2022-07-30T08:58:47.917Z,25.90
2022-07-30T09:01:20.090Z,25.90
2022-07-30T09:03:47.140Z,28.00
2022-07-30T09:06:16.621Z,26.20
2022-07-30T09:08:45.633Z,26.40
2022-07-30T09:11:12.851Z,27.20
2022-07-30T09:13:42.978Z,27.40
2022-07-30T09:16:24.466Z,27.00
2022-07-30T09:18:55.279Z,27.70
2022-07-30T09:21:30.007Z,29.00
2022-07-30T09:24:17.172Z,27.40
2022-07-30T09:27:06.938Z,27.60
2022-07-30T09:30:03.331Z,27.60
2022-07-30T09:32:58.216Z,27.70
2022-07-30T09:35:44.005Z,29.50
2022-07-30T09:38:12.942Z,27.90
2022-07-30T09:40:57.780Z,28.00
2022-07-30T09:43:55.626Z,28.00
2022-07-30T09:46:51.009Z,28.30
2022-07-30T09:49:28.799Z,28.30
2022-07-30T09:51:58.194Z,28.50
2022-07-30T09:54:52.412Z,28.50
2022-07-30T09:57:27.320Z,29.30
2022-07-30T10:00:23.933Z,28.70
2022-07-30T10:03:33.904Z,28.80
2022-07-30T10:06:38.148Z,28.90
2022-07-30T10:09:37.245Z,29.30
2022-07-30T10:12:14.726Z,30.20
2022-07-30T10:14:49.456Z,29.50
2022-07-30T10:17:21.978Z,29.50
2022-07-30T10:20:10.071Z,30.40
2022-07-30T10:22:59.767Z,29.70
2022-07-30T10:25:49.439Z,30.40
2022-07-30T10:28:51.030Z,29.50
2022-07-30T10:31:46.666Z,30.00
2022-07-30T10:34:10.187Z,30.10
2022-07-30T10:36:45.837Z,32.10
2022-07-30T10:39:22.126Z,30.40
2022-07-30T10:42:34.919Z,30.60
2022-07-30T10:45:47.117Z,30.60
2022-07-30T10:48:15.143Z,30.90
2022-07-30T10:50:56.372Z,31.70
2022-07-30T10:53:52.472Z,31.10
2022-07-30T10:56:25.853Z,31.40
2022-07-30T10:59:10.732Z,31.40
2022-07-30T11:01:53.212Z,31.50
2022-07-30T11:04:46.573Z,31.60
2022-07-30T11:07:27.477Z,31.70
2022-07-30T11:10:08.766Z,31.80
2022-07-30T11:12:43.926Z,31.80
2022-07-30T11:15:18.568Z,32.50
2022-07-30T11:18:02.804Z,32.00
2022-07-30T11:20:38.573Z,32.10
2022-07-30T11:23:20.618Z,34.00
2022-07-30T11:25:51.258Z,32.20
2022-07-30T11:28:49.449Z,32.10
2022-07-30T11:31:54.936Z,32.10
2022-07-30T11:34:25.602Z,31.90
2022-07-30T11:37:18.584Z,31.80
2022-07-30T11:39:58.135Z,31.80
2022-07-30T11:42:31.360Z,33.20
2022-07-30T11:45:30.257Z,32.00
2022-07-30T11:48:00.183Z,32.40
2022-07-30T11:50:35.102Z,32.70
2022-07-30T11:53:09.108Z,32.90
2022-07-30T11:55:46.637Z,33.10
2022-07-30T11:58:40.117Z,33.20
2022-07-30T12:01:18.056Z,33.20
2022-07-30T12:03:46.388Z,33.20
2022-07-30T12:06:19.902Z,33.20
2022-07-30T12:08:57.876Z,33.40
2022-07-30T12:11:39.600Z,33.30
2022-07-30T12:14:06.894Z,34.80
2022-07-30T12:16:35.176Z,33.50
2022-07-30T12:19:17.820Z,34.10
2022-07-30T12:21:52.939Z,35.70
2022-07-30T12:24:27.910Z,33.50
2022-07-30T12:27:08.235Z,33.50
2022-07-30T12:29:36.083Z,33.40
2022-07-30T12:32:03.432Z,34.00
2022-07-30T12:34:31.319Z,33.30
2022-07-30T12:37:09.964Z,33.10
2022-07-30T12:39:38.197Z,33.30
2022-07-30T12:42:07.729Z,33.00
2022-07-30T12:44:47.009Z,32.80
2022-07-30T12:47:30.122Z,34.10
2022-07-30T12:50:03.532Z,32.70
2022-07-30T12:52:34.926Z,32.70
2022-07-30T12:55:09.124Z,32.70
2022-07-30T12:58:07.723Z,32.50
2022-07-30T13:00:52.645Z,32.60
2022-07-30T13:03:29.191Z,32.60
2022-07-30T13:05:57.770Z,32.60
2022-07-30T13:08:58.493Z,32.70
2022-07-30T13:11:39.117Z,32.80
2022-07-30T13:14:08.212Z,32.90
2022-07-30T13:16:37.264Z,32.80
2022-07-30T13:19:10.987Z,33.00
2022-07-30T13:21:49.546Z,33.10
2022-07-30T13:24:21.239Z,33.30
2022-07-30T13:26:50.835Z,33.10
2022-07-30T13:29:18.557Z,33.40
2022-07-30T13:31:47.980Z,34.00
2022-07-30T13:34:15.836Z,34.30
2022-07-30T13:36:43.007Z,34.70
2022-07-30T13:39:12.067Z,35.00
2022-07-30T13:41:41.750Z,35.40
2022-07-30T13:44:11.079Z,35.50
2022-07-30T13:46:41.289Z,35.80
2022-07-30T13:49:13.789Z,35.90
2022-07-30T13:51:42.196Z,36.10
2022-07-30T13:54:10.727Z,36.10
2022-07-30T13:56:43.360Z,36.20
2022-07-30T13:59:10.322Z,36.30
2022-07-30T14:01:38.694Z,36.20
2022-07-30T14:04:07.614Z,36.30
2022-07-30T14:06:34.749Z,36.20
2022-07-30T14:09:01.792Z,36.10
2022-07-30T14:11:28.973Z,36.70
2022-07-30T14:13:56.352Z,36.00
2022-07-30T14:16:44.229Z,35.90
2022-07-30T14:19:22.613Z,35.70
2022-07-30T14:21:53.974Z,35.80
2022-07-30T14:24:23.994Z,35.00
2022-07-30T14:26:58.730Z,35.10
2022-07-30T14:29:29.118Z,35.00
2022-07-30T14:31:57.793Z,34.70
2022-07-30T14:34:28.398Z,34.60
2022-07-30T14:36:58.733Z,34.50
2022-07-30T14:39:26.006Z,35.20
2022-07-30T14:41:56.356Z,34.40
2022-07-30T14:44:25.005Z,34.30
2022-07-30T14:46:53.971Z,34.40
2022-07-30T14:52:16.466Z,36.00
2022-07-30T14:54:44.381Z,34.30
2022-07-30T14:57:11.536Z,34.30
2022-07-30T14:59:38.809Z,34.20
2022-07-30T15:02:07.096Z,34.30
2022-07-30T15:04:38.848Z,34.40
2022-07-30T15:07:06.915Z,34.60
2022-07-30T15:09:37.743Z,35.00
2022-07-30T15:12:08.360Z,35.40
2022-07-30T15:14:40.302Z,35.70
2022-07-30T15:17:09.949Z,36.20
2022-07-30T15:19:49.211Z,36.50
2022-07-30T15:22:23.181Z,36.90
2022-07-30T15:24:51.562Z,37.00
2022-07-30T15:27:18.664Z,36.90
2022-07-30T15:29:47.809Z,36.60
2022-07-30T15:32:16.789Z,36.50
2022-07-30T15:34:45.154Z,36.30
2022-07-30T15:37:13.113Z,35.70
2022-07-30T15:40:08.323Z,35.40
2022-07-30T15:42:36.576Z,35.10
2022-07-30T15:45:17.159Z,34.80
2022-07-30T15:47:45.085Z,34.50
2022-07-30T15:50:13.485Z,34.60
2022-07-30T15:52:41.350Z,34.00
2022-07-30T15:55:12.785Z,33.70
2022-07-30T15:57:43.646Z,33.40
2022-07-30T16:00:13.841Z,33.20
2022-07-30T16:02:43.473Z,32.90
2022-07-30T16:05:14.122Z,32.70
2022-07-30T16:07:43.828Z,32.50
2022-07-30T16:10:11.087Z,32.30
2022-07-30T16:12:42.172Z,32.30
2022-07-30T16:15:11.007Z,32.20
2022-07-30T16:17:38.421Z,32.20
2022-07-30T16:20:07.258Z,32.60
2022-07-30T16:22:34.414Z,32.00
2022-07-30T16:25:02.334Z,31.90
2022-07-30T16:27:29.378Z,33.60
2022-07-30T16:29:58.872Z,31.70
2022-07-30T16:32:25.780Z,33.30
2022-07-30T16:34:52.765Z,30.80
2022-07-30T16:37:21.725Z,32.50
2022-07-30T16:39:51.056Z,33.70
2022-07-30T16:42:19.257Z,31.50
2022-07-30T16:44:48.633Z,31.40
2022-07-30T16:47:17.747Z,31.50
2022-07-30T16:49:44.774Z,31.50
2022-07-30T16:52:11.732Z,33.30
2022-07-30T16:54:38.708Z,31.50
2022-07-30T16:57:10.408Z,31.50
2022-07-30T16:59:42.158Z,31.60
2022-07-30T17:02:10.984Z,31.70
2022-07-30T17:04:38.840Z,31.70
2022-07-30T17:07:09.003Z,31.80
2022-07-30T17:09:36.584Z,31.80
2022-07-30T17:12:12.289Z,31.90
2022-07-30T17:14:41.750Z,32.00
2022-07-30T17:17:13.984Z,32.00
2022-07-30T17:19:42.946Z,31.90
2022-07-30T17:22:09.900Z,31.80
2022-07-30T17:24:37.784Z,31.80
2022-07-30T17:27:04.970Z,31.60
2022-07-30T17:29:31.988Z,31.40
2022-07-30T17:31:59.348Z,32.20
2022-07-30T17:34:26.680Z,31.00
2022-07-30T17:36:53.604Z,30.90
2022-07-30T17:40:19.066Z,31.70
2022-07-30T17:42:14.485Z,30.40
2022-07-30T17:44:42.878Z,30.20
2022-07-30T17:47:15.042Z,30.10
2022-07-30T17:49:48.291Z,31.50
2022-07-30T17:52:15.340Z,30.00
2022-07-30T17:54:42.272Z,31.90
2022-07-30T17:57:10.921Z,29.50
2022-07-30T17:59:40.299Z,29.70
2022-07-30T18:02:09.715Z,29.20
2022-07-30T18:04:38.166Z,31.50
2022-07-30T18:07:07.995Z,29.00
2022-07-30T18:09:40.314Z,28.90
2022-07-30T18:12:10.916Z,29.60
2022-07-30T18:14:38.818Z,28.80
2022-07-30T18:17:08.240Z,29.70
2022-07-30T18:19:41.649Z,28.60
2022-07-30T18:22:09.407Z,28.60
2022-07-30T18:24:39.965Z,28.40
2022-07-30T18:27:09.548Z,29.40
2022-07-30T18:29:38.966Z,28.40
2022-07-30T18:32:06.817Z,28.30
2022-07-30T18:34:34.583Z,28.30
2022-07-30T18:37:02.375Z,28.30
2022-07-30T18:39:29.399Z,28.20
2022-07-30T18:41:58.172Z,28.20
2022-07-30T18:44:25.151Z,28.10
2022-07-30T18:47:01.884Z,28.00
2022-07-30T18:49:38.183Z,29.20
2022-07-30T18:52:07.735Z,27.30
2022-07-30T18:54:36.565Z,29.50
2022-07-30T18:57:04.891Z,28.30
2022-07-30T18:59:32.791Z,27.70
2022-07-30T19:02:00.606Z,27.60
2022-07-30T19:04:29.274Z,29.30
2022-07-30T19:06:56.290Z,27.50
2022-07-30T19:09:23.706Z,27.40
2022-07-30T19:11:54.413Z,27.30
2022-07-30T19:14:25.328Z,27.30
2022-07-30T19:16:59.363Z,27.20
2022-07-30T19:19:31.652Z,27.10
2022-07-30T19:22:01.525Z,27.10
2022-07-30T19:24:30.855Z,27.00
2022-07-30T19:26:57.984Z,27.00
2022-07-30T19:29:29.103Z,26.90
2022-07-30T19:31:58.943Z,26.80
2022-07-30T19:34:29.828Z,26.80
2022-07-30T19:37:00.640Z,26.70
2022-07-30T19:39:28.104Z,26.60
2022-07-30T19:41:57.781Z,26.50
2022-07-30T19:44:25.208Z,26.50
2022-07-30T19:46:52.381Z,27.30
2022-07-30T19:49:21.664Z,26.30
2022-07-30T19:52:10.064Z,26.30
2022-07-30T19:54:40.152Z,26.90
2022-07-30T19:57:11.897Z,27.50
2022-07-30T19:59:59.344Z,26.00
2022-07-30T20:02:28.226Z,25.90
2022-07-30T20:04:56.163Z,25.90
2022-07-30T20:07:27.593Z,25.80
2022-07-30T20:09:54.753Z,25.80
2022-07-30T20:12:24.593Z,25.60
2022-07-30T20:14:53.519Z,25.60
2022-07-30T20:17:20.462Z,25.60
2022-07-30T20:19:48.697Z,25.60
2022-07-30T20:22:16.797Z,25.40
2022-07-30T20:24:50.530Z,28.40
2022-07-30T20:27:36.121Z,25.30
2022-07-30T20:30:08.960Z,25.30
2022-07-30T20:32:40.574Z,25.20
2022-07-30T20:35:15.336Z,25.20
2022-07-30T20:37:55.716Z,25.10
2022-07-30T20:43:14.684Z,26.60
2022-07-30T20:45:42.976Z,25.00
2022-07-30T20:48:17.258Z,24.90
2022-07-30T20:50:53.520Z,24.80
2022-07-30T20:53:23.059Z,24.70
2022-07-30T20:55:52.084Z,24.60
2022-07-30T20:58:20.943Z,24.60
2022-07-30T21:00:50.848Z,24.60
2022-07-30T21:03:23.773Z,24.40
2022-07-30T21:05:52.921Z,25.10
2022-07-30T21:08:21.215Z,25.60
2022-07-30T21:10:55.636Z,24.30
2022-07-30T21:13:24.999Z,26.70
2022-07-30T21:16:02.827Z,24.20
2022-07-30T21:18:32.792Z,25.20
2022-07-30T21:21:01.306Z,24.20
2022-07-30T21:23:31.995Z,25.20
2022-07-30T21:26:00.576Z,24.00
2022-07-30T21:28:35.937Z,24.00
2022-07-30T21:33:51.827Z,23.90
2022-07-30T21:36:24.851Z,23.80
2022-07-30T21:38:53.756Z,24.00
2022-07-30T21:41:40.508Z,23.60
2022-07-30T21:44:08.253Z,23.60
2022-07-30T21:47:01.920Z,25.00
2022-07-30T21:49:31.638Z,23.40
2022-07-30T21:51:58.731Z,23.30
2022-07-30T21:54:28.425Z,23.20
2022-07-30T21:56:58.220Z,23.10
2022-07-30T21:59:25.738Z,23.00
2022-07-30T22:01:55.682Z,23.00
2022-07-30T22:04:22.887Z,24.40
2022-07-30T22:06:54.780Z,22.90
2022-07-30T22:09:32.970Z,23.90
2022-07-30T22:12:09.873Z,22.70
2022-07-30T22:14:40.012Z,22.70
2022-07-30T22:17:14.724Z,23.80
2022-07-30T22:19:51.848Z,22.60
2022-07-30T22:22:27.650Z,22.50
2022-07-30T22:24:58.240Z,24.60
2022-07-30T22:27:28.337Z,23.60
2022-07-30T22:30:09.922Z,22.40
2022-07-30T22:32:38.088Z,22.40
2022-07-30T22:35:10.114Z,23.30
2022-07-30T22:37:41.192Z,22.30
2022-07-30T22:40:08.954Z,22.30
2022-07-30T22:42:46.853Z,22.30
2022-07-30T22:48:10.882Z,22.30
2022-07-30T22:50:41.064Z,22.20
2022-07-30T22:53:56.234Z,22.80
2022-07-30T22:55:55.959Z,22.90
2022-07-30T22:58:26.333Z,24.20
2022-07-30T23:00:53.853Z,22.20
2022-07-30T23:03:21.163Z,23.80
2022-07-30T23:05:56.189Z,22.20
2022-07-30T23:08:30.320Z,22.20
2022-07-30T23:10:59.712Z,22.30
2022-07-30T23:12:18.317Z,25.00
2022-07-30T23:12:30.392Z,22.30
2022-07-30T23:12:31.285Z,24.00
2022-07-30T23:13:27.845Z,22.10
2022-07-30T23:15:54.780Z,22.10
2022-07-30T23:18:22.497Z,22.10
2022-07-30T23:20:49.382Z,22.00
2022-07-30T23:23:17.957Z,23.10
2022-07-30T23:25:45.138Z,23.40
2022-07-30T23:28:13.727Z,21.90
2022-07-30T23:30:40.692Z,24.30
2022-07-30T23:33:07.712Z,23.00
2022-07-30T23:35:34.947Z,22.60
2022-07-30T23:38:02.857Z,21.80
2022-07-30T23:40:29.881Z,22.40
2022-07-30T23:42:59.983Z,21.70
2022-07-30T23:45:26.941Z,23.00
2022-07-30T23:48:02.386Z,21.50
2022-07-30T23:50:33.947Z,21.40
2022-07-30T23:53:02.188Z,21.40
2022-07-30T23:55:31.740Z,21.30
2022-07-30T23:58:00.273Z,21.60
